sensor_id;sensor_type;location;lat;lon;timestamp;pressure;altitude;pressure_sealevel;temperature;humidity
34073;BME280;20346;52.702;16.886;2023-06-24T00:02:13;101271.39;;;18.51;70.39
34073;BME280;20346;52.702;16.886;2023-06-24T00:05:00;101275.09;;;18.50;70.39
34073;BME280;20346;52.702;16.886;2023-06-24T00:07:47;101274.90;;;18.51;70.42
34073;BME280;20346;52.702;16.886;2023-06-24T00:10:34;101277.34;;;18.50;70.28
34073;BME280;20346;52.702;16.886;2023-06-24T00:13:20;101273.13;;;18.52;70.40
34073;BME280;20346;52.702;16.886;2023-06-24T00:16:07;101275.71;;;18.52;70.41
34073;BME280;20346;52.702;16.886;2023-06-24T00:18:55;101270.00;;;18.51;70.31
34073;BME280;20346;52.702;16.886;2023-06-24T00:21:50;101271.97;;;18.50;70.19
34073;BME280;20346;52.702;16.886;2023-06-24T00:24:59;101271.45;;;18.49;70.23
34073;BME280;20346;52.702;16.886;2023-06-24T00:27:46;101276.48;;;18.50;70.05
34073;BME280;20346;52.702;16.886;2023-06-24T00:30:39;101275.20;;;18.52;70.21
34073;BME280;20346;52.702;16.886;2023-06-24T00:33:26;101269.80;;;18.52;70.09
34073;BME280;20346;52.702;16.886;2023-06-24T00:36:13;101267.40;;;18.50;70.06
34073;BME280;20346;52.702;16.886;2023-06-24T00:39:00;101265.90;;;18.48;70.03
34073;BME280;20346;52.702;16.886;2023-06-24T00:41:48;101266.84;;;18.47;70.01
34073;BME280;20346;52.702;16.886;2023-06-24T00:44:37;101271.16;;;18.43;69.97
34073;BME280;20346;52.702;16.886;2023-06-24T00:47:26;101278.80;;;18.40;69.99
34073;BME280;20346;52.702;16.886;2023-06-24T00:50:12;101279.95;;;18.38;69.89
34073;BME280;20346;52.702;16.886;2023-06-24T00:52:59;101281.75;;;18.36;69.92
34073;BME280;20346;52.702;16.886;2023-06-24T00:55:46;101284.06;;;18.35;69.90
34073;BME280;20346;52.702;16.886;2023-06-24T00:58:34;101285.12;;;18.35;69.82
34073;BME280;20346;52.702;16.886;2023-06-24T01:01:23;101291.23;;;18.35;69.77
34073;BME280;20346;52.702;16.886;2023-06-24T01:04:10;101289.45;;;18.35;69.75
34073;BME280;20346;52.702;16.886;2023-06-24T01:06:57;101291.20;;;18.35;69.79
34073;BME280;20346;52.702;16.886;2023-06-24T01:09:44;101293.71;;;18.33;69.70
34073;BME280;20346;52.702;16.886;2023-06-24T01:12:33;101298.13;;;18.32;69.72
34073;BME280;20346;52.702;16.886;2023-06-24T01:15:21;101298.92;;;18.29;69.70
34073;BME280;20346;52.702;16.886;2023-06-24T01:18:32;101304.73;;;18.28;69.64
34073;BME280;20346;52.702;16.886;2023-06-24T01:24:40;101307.05;;;18.27;69.72
34073;BME280;20346;52.702;16.886;2023-06-24T01:37:20;101312.95;;;18.23;69.78
34073;BME280;20346;52.702;16.886;2023-06-24T01:43:35;101306.48;;;18.23;69.61
34073;BME280;20346;52.702;16.886;2023-06-24T01:46:22;101303.19;;;18.23;69.61
34073;BME280;20346;52.702;16.886;2023-06-24T01:49:19;101304.95;;;18.22;69.71
34073;BME280;20346;52.702;16.886;2023-06-24T01:52:08;101307.96;;;18.21;69.65
34073;BME280;20346;52.702;16.886;2023-06-24T01:54:58;101306.93;;;18.20;69.65
34073;BME280;20346;52.702;16.886;2023-06-24T01:57:48;101303.11;;;18.20;69.72
34073;BME280;20346;52.702;16.886;2023-06-24T02:00:36;101310.10;;;18.20;69.68
34073;BME280;20346;52.702;16.886;2023-06-24T02:03:27;101312.28;;;18.18;69.63
34073;BME280;20346;52.702;16.886;2023-06-24T02:06:16;101316.67;;;18.18;69.58
34073;BME280;20346;52.702;16.886;2023-06-24T02:09:05;101318.80;;;18.17;69.55
34073;BME280;20346;52.702;16.886;2023-06-24T02:11:56;101312.36;;;18.16;69.70
34073;BME280;20346;52.702;16.886;2023-06-24T02:14:43;101314.78;;;18.16;69.74
34073;BME280;20346;52.702;16.886;2023-06-24T02:17:30;101312.37;;;18.16;69.67
34073;BME280;20346;52.702;16.886;2023-06-24T02:20:18;101316.91;;;18.15;69.72
34073;BME280;20346;52.702;16.886;2023-06-24T02:23:08;101317.80;;;18.15;69.67
34073;BME280;20346;52.702;16.886;2023-06-24T02:25:59;101321.02;;;18.13;69.71
34073;BME280;20346;52.702;16.886;2023-06-24T02:28:47;101321.11;;;18.10;69.66
34073;BME280;20346;52.702;16.886;2023-06-24T02:31:35;101323.19;;;18.11;69.84
34073;BME280;20346;52.702;16.886;2023-06-24T02:34:24;101324.77;;;18.11;69.84
34073;BME280;20346;52.702;16.886;2023-06-24T02:37:13;101327.98;;;18.08;69.72
34073;BME280;20346;52.702;16.886;2023-06-24T02:40:02;101334.41;;;18.04;69.85
34073;BME280;20346;52.702;16.886;2023-06-24T02:42:51;101339.66;;;18.04;69.86
34073;BME280;20346;52.702;16.886;2023-06-24T02:45:38;101343.84;;;18.04;69.82
34073;BME280;20346;52.702;16.886;2023-06-24T02:48:26;101348.39;;;18.04;69.90
34073;BME280;20346;52.702;16.886;2023-06-24T02:51:16;101351.41;;;18.02;69.84
34073;BME280;20346;52.702;16.886;2023-06-24T02:54:04;101356.45;;;18.03;69.85
34073;BME280;20346;52.702;16.886;2023-06-24T02:56:52;101352.98;;;18.02;69.85
34073;BME280;20346;52.702;16.886;2023-06-24T02:59:42;101343.84;;;17.99;69.86
34073;BME280;20346;52.702;16.886;2023-06-24T03:02:29;101339.04;;;17.97;69.80
34073;BME280;20346;52.702;16.886;2023-06-24T03:05:20;101339.58;;;17.97;70.00
34073;BME280;20346;52.702;16.886;2023-06-24T03:08:12;101338.44;;;17.95;69.87
34073;BME280;20346;52.702;16.886;2023-06-24T03:10:58;101343.17;;;17.93;70.01
34073;BME280;20346;52.702;16.886;2023-06-24T03:13:47;101348.08;;;17.93;70.09
34073;BME280;20346;52.702;16.886;2023-06-24T03:16:33;101343.37;;;17.93;70.08
34073;BME280;20346;52.702;16.886;2023-06-24T03:19:20;101346.94;;;17.91;70.02
34073;BME280;20346;52.702;16.886;2023-06-24T03:22:15;101349.81;;;17.89;70.02
34073;BME280;20346;52.702;16.886;2023-06-24T03:25:11;101355.25;;;17.87;69.97
34073;BME280;20346;52.702;16.886;2023-06-24T03:27:58;101363.13;;;17.87;70.13
34073;BME280;20346;52.702;16.886;2023-06-24T03:30:47;101369.59;;;17.86;70.13
34073;BME280;20346;52.702;16.886;2023-06-24T03:33:35;101376.37;;;17.87;70.04
34073;BME280;20346;52.702;16.886;2023-06-24T03:36:30;101380.88;;;17.88;70.13
34073;BME280;20346;52.702;16.886;2023-06-24T03:39:20;101382.39;;;17.90;70.16
34073;BME280;20346;52.702;16.886;2023-06-24T03:42:07;101385.53;;;17.89;70.16
34073;BME280;20346;52.702;16.886;2023-06-24T03:44:54;101385.06;;;17.88;70.11
34073;BME280;20346;52.702;16.886;2023-06-24T03:47:42;101389.83;;;17.86;70.18
34073;BME280;20346;52.702;16.886;2023-06-24T03:50:28;101389.50;;;17.85;70.21
34073;BME280;20346;52.702;16.886;2023-06-24T03:53:14;101388.14;;;17.84;70.30
34073;BME280;20346;52.702;16.886;2023-06-24T03:56:02;101393.84;;;17.86;70.32
34073;BME280;20346;52.702;16.886;2023-06-24T03:58:49;101391.14;;;17.89;70.31
34073;BME280;20346;52.702;16.886;2023-06-24T04:01:36;101391.52;;;17.88;70.20
34073;BME280;20346;52.702;16.886;2023-06-24T04:04:23;101394.73;;;17.91;70.27
34073;BME280;20346;52.702;16.886;2023-06-24T04:07:10;101393.43;;;17.93;70.27
34073;BME280;20346;52.702;16.886;2023-06-24T04:09:56;101390.93;;;17.95;70.39
34073;BME280;20346;52.702;16.886;2023-06-24T04:12:44;101395.33;;;17.99;70.34
34073;BME280;20346;52.702;16.886;2023-06-24T04:15:30;101394.14;;;18.03;70.39
34073;BME280;20346;52.702;16.886;2023-06-24T04:18:20;101398.58;;;18.11;70.49
34073;BME280;20346;52.702;16.886;2023-06-24T04:21:07;101397.09;;;18.18;70.45
34073;BME280;20346;52.702;16.886;2023-06-24T04:23:53;101394.58;;;18.25;70.43
34073;BME280;20346;52.702;16.886;2023-06-24T04:26:40;101394.34;;;18.31;70.57
34073;BME280;20346;52.702;16.886;2023-06-24T04:29:26;101398.42;;;18.39;70.44
34073;BME280;20346;52.702;16.886;2023-06-24T04:32:12;101395.34;;;18.47;70.53
34073;BME280;20346;52.702;16.886;2023-06-24T04:35:00;101394.73;;;18.54;70.41
34073;BME280;20346;52.702;16.886;2023-06-24T04:37:47;101396.98;;;18.60;70.50
34073;BME280;20346;52.702;16.886;2023-06-24T04:40:36;101404.88;;;18.69;70.46
34073;BME280;20346;52.702;16.886;2023-06-24T04:43:23;101406.52;;;18.76;70.53
34073;BME280;20346;52.702;16.886;2023-06-24T04:46:12;101408.77;;;18.81;70.31
34073;BME280;20346;52.702;16.886;2023-06-24T04:49:12;101409.57;;;18.88;70.35
34073;BME280;20346;52.702;16.886;2023-06-24T04:52:01;101412.51;;;18.93;70.36
34073;BME280;20346;52.702;16.886;2023-06-24T04:54:48;101418.50;;;19.01;70.41
34073;BME280;20346;52.702;16.886;2023-06-24T04:57:40;101420.33;;;19.08;70.34
34073;BME280;20346;52.702;16.886;2023-06-24T05:00:40;101420.70;;;19.16;70.26
34073;BME280;20346;52.702;16.886;2023-06-24T05:03:28;101414.85;;;19.27;70.32
34073;BME280;20346;52.702;16.886;2023-06-24T05:06:14;101418.61;;;19.42;70.24
34073;BME280;20346;52.702;16.886;2023-06-24T05:09:06;101413.86;;;19.61;70.15
34073;BME280;20346;52.702;16.886;2023-06-24T05:11:55;101413.61;;;19.87;70.14
34073;BME280;20346;52.702;16.886;2023-06-24T05:14:41;101415.88;;;20.24;70.23
34073;BME280;20346;52.702;16.886;2023-06-24T05:17:34;101417.52;;;20.70;70.07
34073;BME280;20346;52.702;16.886;2023-06-24T05:20:25;101411.44;;;20.91;69.59
34073;BME280;20346;52.702;16.886;2023-06-24T05:23:15;101410.65;;;21.05;69.46
34073;BME280;20346;52.702;16.886;2023-06-24T05:26:32;101407.46;;;21.31;69.56
34073;BME280;20346;52.702;16.886;2023-06-24T05:29:19;101409.02;;;21.67;69.54
34073;BME280;20346;52.702;16.886;2023-06-24T05:32:06;101409.70;;;21.85;69.08
34073;BME280;20346;52.702;16.886;2023-06-24T05:34:53;101410.92;;;21.92;69.16
34073;BME280;20346;52.702;16.886;2023-06-24T05:37:44;101409.55;;;21.98;68.83
34073;BME280;20346;52.702;16.886;2023-06-24T05:40:30;101407.39;;;22.06;69.03
34073;BME280;20346;52.702;16.886;2023-06-24T05:43:20;101410.20;;;22.24;68.94
34073;BME280;20346;52.702;16.886;2023-06-24T05:46:13;101410.30;;;22.51;68.78
34073;BME280;20346;52.702;16.886;2023-06-24T05:49:01;101411.94;;;22.60;68.38
34073;BME280;20346;52.702;16.886;2023-06-24T05:51:53;101414.05;;;22.57;68.30
34073;BME280;20346;52.702;16.886;2023-06-24T05:54:41;101410.42;;;22.42;67.80
34073;BME280;20346;52.702;16.886;2023-06-24T05:57:27;101408.98;;;22.23;67.70
34073;BME280;20346;52.702;16.886;2023-06-24T06:00:14;101412.13;;;22.14;67.74
34073;BME280;20346;52.702;16.886;2023-06-24T06:03:01;101413.83;;;22.04;67.46
34073;BME280;20346;52.702;16.886;2023-06-24T06:06:00;101415.86;;;22.02;67.46
34073;BME280;20346;52.702;16.886;2023-06-24T06:08:56;101417.76;;;22.03;67.35
34073;BME280;20346;52.702;16.886;2023-06-24T06:11:43;101418.48;;;22.13;67.32
34073;BME280;20346;52.702;16.886;2023-06-24T06:14:32;101418.39;;;22.11;67.00
34073;BME280;20346;52.702;16.886;2023-06-24T06:17:29;101413.52;;;22.14;66.98
34073;BME280;20346;52.702;16.886;2023-06-24T06:20:22;101410.61;;;22.12;66.72
34073;BME280;20346;52.702;16.886;2023-06-24T06:23:09;101414.77;;;22.17;66.56
34073;BME280;20346;52.702;16.886;2023-06-24T06:25:57;101414.59;;;22.30;66.59
34073;BME280;20346;52.702;16.886;2023-06-24T06:28:43;101419.94;;;22.48;66.39
34073;BME280;20346;52.702;16.886;2023-06-24T06:31:30;101422.94;;;22.64;66.22
34073;BME280;20346;52.702;16.886;2023-06-24T06:34:16;101422.23;;;22.71;66.00
34073;BME280;20346;52.702;16.886;2023-06-24T06:37:02;101423.45;;;22.78;65.76
34073;BME280;20346;52.702;16.886;2023-06-24T06:39:48;101424.23;;;22.81;65.47
34073;BME280;20346;52.702;16.886;2023-06-24T06:42:34;101425.23;;;22.77;65.29
34073;BME280;20346;52.702;16.886;2023-06-24T06:45:21;101424.23;;;22.90;65.31
34073;BME280;20346;52.702;16.886;2023-06-24T06:48:08;101427.39;;;23.55;65.36
34073;BME280;20346;52.702;16.886;2023-06-24T06:50:55;101425.20;;;24.34;64.88
34073;BME280;20346;52.702;16.886;2023-06-24T06:53:43;101420.33;;;25.17;64.58
34073;BME280;20346;52.702;16.886;2023-06-24T06:56:34;101418.93;;;25.89;64.09
34073;BME280;20346;52.702;16.886;2023-06-24T06:59:22;101418.20;;;26.25;63.63
34073;BME280;20346;52.702;16.886;2023-06-24T07:02:08;101422.53;;;26.43;63.45
34073;BME280;20346;52.702;16.886;2023-06-24T07:04:55;101429.17;;;26.46;63.22
34073;BME280;20346;52.702;16.886;2023-06-24T07:07:46;101426.27;;;26.42;63.06
34073;BME280;20346;52.702;16.886;2023-06-24T07:10:33;101426.70;;;26.68;62.68
34073;BME280;20346;52.702;16.886;2023-06-24T07:13:20;101433.02;;;26.99;62.16
34073;BME280;20346;52.702;16.886;2023-06-24T07:16:06;101431.89;;;27.33;61.73
34073;BME280;20346;52.702;16.886;2023-06-24T07:18:52;101432.63;;;27.90;61.30
34073;BME280;20346;52.702;16.886;2023-06-24T07:21:39;101432.10;;;28.76;61.35
34073;BME280;20346;52.702;16.886;2023-06-24T07:24:26;101421.62;;;30.66;60.24
34073;BME280;20346;52.702;16.886;2023-06-24T07:27:13;101420.66;;;31.83;59.22
34073;BME280;20346;52.702;16.886;2023-06-24T07:30:00;101424.95;;;31.94;59.75
34073;BME280;20346;52.702;16.886;2023-06-24T07:32:46;101424.23;;;32.25;59.93
34073;BME280;20346;52.702;16.886;2023-06-24T07:35:33;101422.91;;;32.79;59.32
34073;BME280;20346;52.702;16.886;2023-06-24T07:38:19;101422.77;;;32.47;58.51
34073;BME280;20346;52.702;16.886;2023-06-24T07:41:05;101421.66;;;32.10;58.62
34073;BME280;20346;52.702;16.886;2023-06-24T07:43:52;101419.90;;;31.83;58.19
34073;BME280;20346;52.702;16.886;2023-06-24T07:46:39;101421.38;;;32.48;57.99
34073;BME280;20346;52.702;16.886;2023-06-24T07:49:25;101417.16;;;34.21;56.18
34073;BME280;20346;52.702;16.886;2023-06-24T07:52:12;101417.06;;;35.62;54.72
34073;BME280;20346;52.702;16.886;2023-06-24T07:54:58;101418.71;;;37.17;53.72
34073;BME280;20346;52.702;16.886;2023-06-24T07:57:46;101420.52;;;37.85;52.29
34073;BME280;20346;52.702;16.886;2023-06-24T08:00:33;101426.16;;;38.59;51.85
34073;BME280;20346;52.702;16.886;2023-06-24T08:03:19;101432.84;;;39.71;50.88
34073;BME280;20346;52.702;16.886;2023-06-24T08:06:05;101430.40;;;39.94;50.51
34073;BME280;20346;52.702;16.886;2023-06-24T08:08:51;101432.72;;;39.92;49.94
34073;BME280;20346;52.702;16.886;2023-06-24T08:11:38;101437.17;;;40.85;48.89
34073;BME280;20346;52.702;16.886;2023-06-24T08:14:25;101439.27;;;41.05;47.93
34073;BME280;20346;52.702;16.886;2023-06-24T08:17:12;101434.14;;;41.59;46.38
34073;BME280;20346;52.702;16.886;2023-06-24T08:19:58;101430.50;;;42.58;45.83
34073;BME280;20346;52.702;16.886;2023-06-24T08:22:44;101430.16;;;43.38;44.47
34073;BME280;20346;52.702;16.886;2023-06-24T08:25:33;101430.77;;;42.20;42.88
34073;BME280;20346;52.702;16.886;2023-06-24T08:28:19;101429.60;;;42.60;43.03
34073;BME280;20346;52.702;16.886;2023-06-24T08:31:05;101427.40;;;42.31;41.09
34073;BME280;20346;52.702;16.886;2023-06-24T08:33:52;101431.27;;;41.24;41.10
34073;BME280;20346;52.702;16.886;2023-06-24T08:36:40;101433.81;;;41.01;40.00
34073;BME280;20346;52.702;16.886;2023-06-24T08:39:26;101429.01;;;39.81;39.83
34073;BME280;20346;52.702;16.886;2023-06-24T08:42:12;101426.65;;;40.58;38.35
34073;BME280;20346;52.702;16.886;2023-06-24T08:44:58;101426.30;;;39.38;38.07
34073;BME280;20346;52.702;16.886;2023-06-24T08:47:46;101429.02;;;39.32;37.58
34073;BME280;20346;52.702;16.886;2023-06-24T08:50:40;101426.81;;;40.07;36.53
34073;BME280;20346;52.702;16.886;2023-06-24T08:53:29;101431.89;;;41.29;35.67
34073;BME280;20346;52.702;16.886;2023-06-24T08:56:16;101428.30;;;41.62;34.61
34073;BME280;20346;52.702;16.886;2023-06-24T08:59:02;101422.94;;;40.40;34.06
34073;BME280;20346;52.702;16.886;2023-06-24T09:01:50;101421.11;;;40.32;34.04
34073;BME280;20346;52.702;16.886;2023-06-24T09:04:36;101411.20;;;39.03;33.38
34073;BME280;20346;52.702;16.886;2023-06-24T09:07:26;101412.90;;;37.09;33.37
34073;BME280;20346;52.702;16.886;2023-06-24T09:10:33;101406.14;;;34.96;33.40
34073;BME280;20346;52.702;16.886;2023-06-24T09:13:20;101400.96;;;33.46;33.22
34073;BME280;20346;52.702;16.886;2023-06-24T09:16:14;101403.74;;;32.26;33.17
34073;BME280;20346;52.702;16.886;2023-06-24T09:19:01;101402.64;;;31.09;32.94
34073;BME280;20346;52.702;16.886;2023-06-24T09:21:47;101401.38;;;30.04;33.03
34073;BME280;20346;52.702;16.886;2023-06-24T09:24:35;101397.67;;;29.43;33.30
34073;BME280;20346;52.702;16.886;2023-06-24T09:27:22;101401.96;;;28.93;33.64
34073;BME280;20346;52.702;16.886;2023-06-24T09:30:17;101410.60;;;28.57;33.76
34073;BME280;20346;52.702;16.886;2023-06-24T09:33:06;101412.11;;;28.26;33.92
34073;BME280;20346;52.702;16.886;2023-06-24T09:35:56;101414.60;;;27.92;34.09
34073;BME280;20346;52.702;16.886;2023-06-24T09:38:43;101421.20;;;27.61;33.95
34073;BME280;20346;52.702;16.886;2023-06-24T09:41:33;101420.38;;;27.26;34.33
34073;BME280;20346;52.702;16.886;2023-06-24T09:44:20;101416.66;;;26.97;34.42
34073;BME280;20346;52.702;16.886;2023-06-24T09:47:06;101419.50;;;26.85;34.63
34073;BME280;20346;52.702;16.886;2023-06-24T09:49:53;101424.66;;;26.75;34.69
34073;BME280;20346;52.702;16.886;2023-06-24T09:52:40;101421.09;;;26.45;34.68
34073;BME280;20346;52.702;16.886;2023-06-24T09:55:27;101417.52;;;26.20;34.82
34073;BME280;20346;52.702;16.886;2023-06-24T09:58:15;101409.89;;;25.95;35.21
34073;BME280;20346;52.702;16.886;2023-06-24T10:01:04;101408.91;;;25.78;35.55
34073;BME280;20346;52.702;16.886;2023-06-24T10:03:50;101409.11;;;25.75;35.81
34073;BME280;20346;52.702;16.886;2023-06-24T10:06:36;101411.15;;;25.74;36.05
34073;BME280;20346;52.702;16.886;2023-06-24T10:09:22;101414.84;;;25.74;36.22
34073;BME280;20346;52.702;16.886;2023-06-24T10:12:09;101412.29;;;25.72;36.43
34073;BME280;20346;52.702;16.886;2023-06-24T10:14:55;101408.65;;;25.74;36.71
34073;BME280;20346;52.702;16.886;2023-06-24T10:17:41;101407.00;;;25.78;36.83
34073;BME280;20346;52.702;16.886;2023-06-24T10:20:28;101408.87;;;25.81;37.18
34073;BME280;20346;52.702;16.886;2023-06-24T10:23:14;101414.60;;;25.85;37.49
34073;BME280;20346;52.702;16.886;2023-06-24T10:26:00;101412.17;;;25.87;37.40
34073;BME280;20346;52.702;16.886;2023-06-24T10:31:52;101411.65;;;25.63;37.60
34073;BME280;20346;52.702;16.886;2023-06-24T10:37:26;101402.89;;;25.51;37.97
34073;BME280;20346;52.702;16.886;2023-06-24T10:40:12;101403.09;;;25.56;38.25
34073;BME280;20346;52.702;16.886;2023-06-24T10:43:00;101406.01;;;25.60;38.12
34073;BME280;20346;52.702;16.886;2023-06-24T10:45:51;101410.49;;;25.51;38.24
34073;BME280;20346;52.702;16.886;2023-06-24T10:48:37;101409.30;;;25.38;38.28
34073;BME280;20346;52.702;16.886;2023-06-24T10:51:23;101410.24;;;25.21;38.47
34073;BME280;20346;52.702;16.886;2023-06-24T10:54:09;101402.94;;;25.11;38.58
34073;BME280;20346;52.702;16.886;2023-06-24T10:56:56;101393.50;;;25.04;38.68
34073;BME280;20346;52.702;16.886;2023-06-24T10:59:46;101388.97;;;25.00;38.72
34073;BME280;20346;52.702;16.886;2023-06-24T11:02:33;101386.52;;;24.94;38.83
34073;BME280;20346;52.702;16.886;2023-06-24T11:05:19;101387.82;;;24.93;39.24
34073;BME280;20346;52.702;16.886;2023-06-24T11:08:06;101393.20;;;25.00;39.41
34073;BME280;20346;52.702;16.886;2023-06-24T11:10:52;101390.11;;;24.99;39.56
34073;BME280;20346;52.702;16.886;2023-06-24T11:13:41;101392.42;;;24.88;39.44
34073;BME280;20346;52.702;16.886;2023-06-24T11:16:27;101387.82;;;24.80;39.37
34073;BME280;20346;52.702;16.886;2023-06-24T11:19:13;101381.92;;;24.78;39.53
34073;BME280;20346;52.702;16.886;2023-06-24T11:22:00;101380.56;;;24.80;39.58
34073;BME280;20346;52.702;16.886;2023-06-24T11:24:46;101371.38;;;24.83;39.76
34073;BME280;20346;52.702;16.886;2023-06-24T11:27:32;101373.59;;;24.87;39.93
34073;BME280;20346;52.702;16.886;2023-06-24T11:30:19;101376.50;;;24.94;39.91
34073;BME280;20346;52.702;16.886;2023-06-24T11:33:05;101379.59;;;25.03;40.03
34073;BME280;20346;52.702;16.886;2023-06-24T11:35:51;101372.20;;;25.11;40.18
34073;BME280;20346;52.702;16.886;2023-06-24T11:38:38;101376.94;;;25.23;40.41
34073;BME280;20346;52.702;16.886;2023-06-24T11:41:24;101378.59;;;25.30;40.40
34073;BME280;20346;52.702;16.886;2023-06-24T11:44:12;101378.74;;;25.33;40.51
34073;BME280;20346;52.702;16.886;2023-06-24T11:47:05;101372.73;;;25.35;40.54
34073;BME280;20346;52.702;16.886;2023-06-24T11:49:55;101376.91;;;25.28;40.51
34073;BME280;20346;52.702;16.886;2023-06-24T11:52:43;101371.96;;;25.20;40.75
34073;BME280;20346;52.702;16.886;2023-06-24T11:55:31;101374.27;;;25.23;40.75
34073;BME280;20346;52.702;16.886;2023-06-24T11:58:19;101377.84;;;25.33;40.92
34073;BME280;20346;52.702;16.886;2023-06-24T12:01:08;101376.22;;;25.42;40.77
34073;BME280;20346;52.702;16.886;2023-06-24T12:03:55;101381.17;;;25.41;40.73
34073;BME280;20346;52.702;16.886;2023-06-24T12:06:41;101377.16;;;25.35;40.90
34073;BME280;20346;52.702;16.886;2023-06-24T12:09:28;101379.55;;;25.31;40.89
34073;BME280;20346;52.702;16.886;2023-06-24T12:12:14;101368.31;;;25.25;41.04
34073;BME280;20346;52.702;16.886;2023-06-24T12:15:01;101372.20;;;25.22;41.09
34073;BME280;20346;52.702;16.886;2023-06-24T12:17:47;101370.52;;;25.18;41.02
34073;BME280;20346;52.702;16.886;2023-06-24T12:20:33;101368.47;;;25.17;41.14
34073;BME280;20346;52.702;16.886;2023-06-24T12:23:20;101369.60;;;25.19;41.33
34073;BME280;20346;52.702;16.886;2023-06-24T12:26:06;101365.67;;;25.27;41.41
34073;BME280;20346;52.702;16.886;2023-06-24T12:28:56;101366.96;;;25.32;41.41
34073;BME280;20346;52.702;16.886;2023-06-24T12:31:42;101365.64;;;25.33;41.45
34073;BME280;20346;52.702;16.886;2023-06-24T12:34:28;101361.62;;;25.35;41.36
34073;BME280;20346;52.702;16.886;2023-06-24T12:37:15;101357.23;;;25.40;41.45
34073;BME280;20346;52.702;16.886;2023-06-24T12:40:02;101358.11;;;25.51;41.41
34073;BME280;20346;52.702;16.886;2023-06-24T12:42:48;101360.08;;;25.63;41.58
34073;BME280;20346;52.702;16.886;2023-06-24T12:45:34;101365.21;;;25.74;41.38
34073;BME280;20346;52.702;16.886;2023-06-24T12:48:20;101364.31;;;25.77;41.53
34073;BME280;20346;52.702;16.886;2023-06-24T12:51:07;101365.78;;;25.81;41.54
34073;BME280;20346;52.702;16.886;2023-06-24T12:53:53;101366.52;;;25.81;41.42
34073;BME280;20346;52.702;16.886;2023-06-24T12:56:39;101366.00;;;25.81;41.44
34073;BME280;20346;52.702;16.886;2023-06-24T12:59:25;101362.34;;;25.75;41.32
34073;BME280;20346;52.702;16.886;2023-06-24T13:02:11;101360.48;;;25.71;41.46
34073;BME280;20346;52.702;16.886;2023-06-24T13:04:57;101362.95;;;25.76;41.54
34073;BME280;20346;52.702;16.886;2023-06-24T13:07:43;101364.17;;;25.87;41.54
34073;BME280;20346;52.702;16.886;2023-06-24T13:10:30;101370.02;;;25.89;41.50
34073;BME280;20346;52.702;16.886;2023-06-24T13:13:16;101368.02;;;25.80;41.36
34073;BME280;20346;52.702;16.886;2023-06-24T13:16:02;101365.21;;;25.63;41.45
34073;BME280;20346;52.702;16.886;2023-06-24T13:18:49;101363.73;;;25.53;41.48
34073;BME280;20346;52.702;16.886;2023-06-24T13:21:35;101358.95;;;25.44;41.52
34073;BME280;20346;52.702;16.886;2023-06-24T13:24:21;101362.12;;;25.38;41.55
34073;BME280;20346;52.702;16.886;2023-06-24T13:27:07;101359.95;;;25.36;41.62
34073;BME280;20346;52.702;16.886;2023-06-24T13:29:54;101360.77;;;25.40;41.72
34073;BME280;20346;52.702;16.886;2023-06-24T13:32:40;101354.16;;;25.49;41.52
34073;BME280;20346;52.702;16.886;2023-06-24T13:35:26;101346.84;;;25.58;41.51
34073;BME280;20346;52.702;16.886;2023-06-24T13:38:12;101349.23;;;25.73;41.67
34073;BME280;20346;52.702;16.886;2023-06-24T13:40:59;101350.23;;;25.81;41.51
34073;BME280;20346;52.702;16.886;2023-06-24T13:43:46;101356.09;;;25.84;41.53
34073;BME280;20346;52.702;16.886;2023-06-24T13:46:33;101349.84;;;25.82;41.47
34073;BME280;20346;52.702;16.886;2023-06-24T13:49:19;101344.66;;;25.75;41.62
34073;BME280;20346;52.702;16.886;2023-06-24T13:52:05;101346.77;;;25.72;41.70
34073;BME280;20346;52.702;16.886;2023-06-24T13:54:52;101343.82;;;25.63;41.55
34073;BME280;20346;52.702;16.886;2023-06-24T13:57:38;101347.27;;;25.62;41.67
34073;BME280;20346;52.702;16.886;2023-06-24T14:00:25;101343.05;;;25.67;41.82
34073;BME280;20346;52.702;16.886;2023-06-24T14:03:11;101346.83;;;25.77;41.68
34073;BME280;20346;52.702;16.886;2023-06-24T14:05:57;101348.55;;;25.85;41.77
34073;BME280;20346;52.702;16.886;2023-06-24T14:08:45;101350.61;;;25.96;41.78
34073;BME280;20346;52.702;16.886;2023-06-24T14:11:31;101350.73;;;26.02;41.65
34073;BME280;20346;52.702;16.886;2023-06-24T14:14:17;101350.21;;;25.92;41.67
34073;BME280;20346;52.702;16.886;2023-06-24T14:17:05;101349.99;;;25.87;41.83
34073;BME280;20346;52.702;16.886;2023-06-24T14:19:54;101350.80;;;25.86;41.82
34073;BME280;20346;52.702;16.886;2023-06-24T14:22:41;101348.05;;;25.80;41.81
34073;BME280;20346;52.702;16.886;2023-06-24T14:25:27;101350.77;;;25.74;41.65
34073;BME280;20346;52.702;16.886;2023-06-24T14:28:14;101347.02;;;25.63;41.71
34073;BME280;20346;52.702;16.886;2023-06-24T14:31:00;101347.57;;;25.60;41.72
34073;BME280;20346;52.702;16.886;2023-06-24T14:33:46;101344.06;;;25.63;41.73
34073;BME280;20346;52.702;16.886;2023-06-24T14:36:32;101342.58;;;25.63;41.71
34073;BME280;20346;52.702;16.886;2023-06-24T14:39:19;101344.94;;;25.65;41.78
34073;BME280;20346;52.702;16.886;2023-06-24T14:42:05;101342.89;;;25.64;41.59
34073;BME280;20346;52.702;16.886;2023-06-24T14:44:51;101342.71;;;25.61;41.67
34073;BME280;20346;52.702;16.886;2023-06-24T14:47:38;101342.57;;;25.67;41.69
34073;BME280;20346;52.702;16.886;2023-06-24T14:50:24;101341.16;;;25.69;41.68